Time;durP1;ratioP1;P1;durP2;ratioP2;P2;SDS_P1;SDS_P2;PMS_P1;PMS_P2;Temp;Humidity;BMP_temperature;BMP_pressure;BME280_temperature;BME280_humidity;BME280_pressure;Samples;Min_cycle;Max_cycle;Signal;HPM_P1;HPM_P2
2023/01/17 00:01:06;;;;;;;6.47;5.43;;;;;19.90;97102.00;;;;2079076;28;20364;-51
2023/01/17 00:02:07;;;;;;;7.72;5.55;;;;;19.90;97099.00;;;;2077348;28;20240;-51
2023/01/17 00:03:08;;;;;;;6.53;5.20;;;;;19.90;97109.00;;;;2078554;28;20340;-52
2023/01/17 00:09:52;;;;;;;5.15;4.22;;;;;19.90;97106.00;;;;2061653;28;20222;-52
2023/01/17 00:10:52;;;;;;;6.68;4.80;;;;;19.90;97110.00;;;;2065856;28;20313;-51
2023/01/17 00:11:52;;;;;;;4.50;3.80;;;;;19.90;97110.00;;;;2069347;28;20229;-52
2023/01/17 00:13:02;;;;;;;4.90;3.90;;;;;19.90;97114.00;;;;2069496;28;20253;-51
2023/01/17 00:14:02;;;;;;;4.55;3.88;;;;;19.90;97114.00;;;;2069815;28;20210;-50
2023/01/17 00:15:03;;;;;;;6.00;5.40;;;;;19.90;97106.00;;;;2070975;28;20749;-51
2023/01/17 00:16:03;;;;;;;5.40;4.10;;;;;19.90;97115.00;;;;2070389;28;20284;-51
2023/01/17 00:17:04;;;;;;;4.17;3.60;;;;;19.90;97119.00;;;;2070105;28;21007;-51
2023/01/17 00:18:04;;;;;;;5.33;4.17;;;;;19.90;97120.00;;;;2070836;28;20218;-51
2023/01/17 00:26:03;;;;;;;4.15;3.67;;;;;19.80;97123.00;;;;2078418;28;20225;-51
2023/01/17 01:33:41;;;;;;;1.60;0.90;;;;;19.50;97240.00;;;;2077667;28;20579;-52
2023/01/17 01:34:41;;;;;;;1.90;1.00;;;;;19.50;97235.00;;;;2077622;28;20217;-51
2023/01/17 01:35:42;;;;;;;2.00;1.00;;;;;19.50;97234.00;;;;2077333;28;20221;-52
2023/01/17 01:36:42;;;;;;;1.50;0.87;;;;;19.50;97242.00;;;;2077713;28;20320;-52
2023/01/17 01:37:43;;;;;;;1.60;1.00;;;;;19.40;97258.00;;;;2077700;28;20248;-51
2023/01/17 01:38:44;;;;;;;1.13;0.97;;;;;19.50;97255.00;;;;2077605;28;21050;-52
2023/01/17 01:39:45;;;;;;;1.98;1.02;;;;;19.50;97252.00;;;;2078135;28;20217;-52
2023/01/17 01:40:47;;;;;;;1.43;0.80;;;;;19.50;97252.00;;;;2077925;28;20229;-51
2023/01/17 01:41:47;;;;;;;1.73;0.95;;;;;19.40;97248.00;;;;2076666;28;20213;-52
2023/01/17 01:42:52;;;;;;;1.40;0.90;;;;;19.50;97254.00;;;;2076976;28;20209;-51
2023/01/17 01:43:53;;;;;;;1.30;0.75;;;;;19.50;97260.00;;;;2077903;28;20260;-52
2023/01/17 01:44:53;;;;;;;1.30;0.80;;;;;19.50;97261.00;;;;2078234;28;20709;-52
2023/01/17 01:45:54;;;;;;;1.57;0.90;;;;;19.50;97261.00;;;;2078115;28;20240;-52
2023/01/17 01:46:55;;;;;;;1.20;1.00;;;;;19.50;97267.00;;;;2078051;28;20221;-51
2023/01/17 01:48:01;;;;;;;1.27;0.83;;;;;19.40;97273.00;;;;2078365;28;20217;-52
2023/01/17 01:49:05;;;;;;;0.90;0.63;;;;;19.50;97269.00;;;;2077312;28;20682;-52
2023/01/17 01:50:08;;;;;;;1.20;0.80;;;;;19.40;97268.00;;;;2077093;28;20629;-52
2023/01/17 01:51:11;;;;;;;1.40;0.85;;;;;19.40;97270.00;;;;2077083;28;20681;-52
2023/01/17 01:52:11;;;;;;;1.42;0.75;;;;;19.40;97273.00;;;;2067906;28;20271;-52
2023/01/17 01:53:11;;;;;;;1.20;0.80;;;;;19.40;97272.00;;;;2061278;28;20211;-50
2023/01/17 01:54:17;;;;;;;1.17;0.70;;;;;19.40;97273.00;;;;2077130;28;20284;-52
2023/01/17 01:55:38;;;;;;;1.02;0.75;;;;;19.40;97274.00;;;;2077351;28;20713;-51
2023/01/17 01:56:38;;;;;;;1.42;0.95;;;;;19.40;97275.00;;;;2069090;28;20226;-52
2023/01/17 01:57:43;;;;;;;1.30;0.80;;;;;19.40;97280.00;;;;2061121;28;20253;-51
2023/01/17 01:58:45;;;;;;;2.13;1.00;;;;;19.30;97281.00;;;;2069945;28;20840;-51
2023/01/17 01:59:48;;;;;;;1.10;0.70;;;;;19.40;97277.00;;;;2069268;28;20214;-52
2023/01/17 02:00:49;;;;;;;2.00;1.10;;;;;19.40;97267.00;;;;2068999;28;20309;-51
2023/01/17 02:01:50;;;;;;;1.30;0.90;;;;;19.40;97267.00;;;;2068295;28;20268;-51
2023/01/17 02:02:51;;;;;;;1.38;0.82;;;;;19.30;97273.00;;;;2077830;28;20293;-52
2023/01/17 02:03:51;;;;;;;1.27;0.93;;;;;19.40;97285.00;;;;2069570;28;20248;-52
2023/01/17 02:04:51;;;;;;;1.40;0.80;;;;;19.40;97287.00;;;;2073452;28;23074;-51
2023/01/17 02:05:52;;;;;;;1.20;0.70;;;;;19.40;97286.00;;;;2063724;28;20218;-51
2023/01/17 02:06:57;;;;;;;1.10;0.80;;;;;19.40;97287.00;;;;2077810;28;20330;-51
2023/01/17 02:08:01;;;;;;;1.15;0.80;;;;;19.40;97292.00;;;;2066991;28;20259;-51
2023/01/17 02:09:04;;;;;;;1.25;0.80;;;;;19.40;97291.00;;;;2066729;28;20304;-51
2023/01/17 02:10:05;;;;;;;1.10;0.82;;;;;19.30;97288.00;;;;2077325;28;20224;-52
2023/01/17 02:11:05;;;;;;;1.43;0.93;;;;;19.30;97307.00;;;;2077501;28;20217;-52
2023/01/17 02:12:06;;;;;;;1.90;0.97;;;;;19.30;97301.00;;;;2075765;28;20231;-52
2023/01/17 02:13:06;;;;;;;1.10;0.90;;;;;19.30;97298.00;;;;2069080;28;20571;-52
2023/01/17 02:14:07;;;;;;;1.10;0.87;;;;;19.30;97293.00;;;;2066780;28;20595;-52
2023/01/17 02:15:08;;;;;;;1.60;0.87;;;;;19.30;97314.00;;;;2069073;28;20217;-53
2023/01/17 02:16:23;;;;;;;1.40;0.90;;;;;19.40;97303.00;;;;2069278;28;20701;-52
2023/01/17 02:17:48;;;;;;;1.45;0.80;;;;;19.30;97310.00;;;;2068980;28;20672;-51
2023/01/17 02:19:22;;;;;;;1.00;0.80;;;;;19.30;97318.00;;;;2071991;28;20209;-52
2023/01/17 02:20:44;;;;;;;0.95;0.60;;;;;19.30;97331.00;;;;2077678;28;20240;-51
2023/01/17 02:21:50;;;;;;;1.73;0.70;;;;;19.20;97299.00;;;;2076999;28;20249;-52
2023/01/17 02:23:15;;;;;;;1.30;0.80;;;;;19.30;97316.00;;;;2077743;28;20296;-52
2023/01/17 02:24:44;;;;;;;1.00;0.75;;;;;19.30;97335.00;;;;2076361;28;20221;-52
2023/01/17 02:26:09;;;;;;;1.38;1.00;;;;;19.30;97323.00;;;;2069182;28;20336;-51
2023/01/17 02:27:25;;;;;;;2.55;0.85;;;;;19.30;97320.00;;;;2068645;28;20252;-52
2023/01/17 02:28:40;;;;;;;1.80;0.90;;;;;19.30;97318.00;;;;2070918;28;20712;-52
2023/01/17 02:29:57;;;;;;;1.00;0.70;;;;;19.30;97325.00;;;;2077309;28;20244;-51
2023/01/17 02:31:01;;;;;;;1.08;0.70;;;;;19.30;97335.00;;;;2077452;28;20220;-51
2023/01/17 02:32:11;;;;;;;1.33;0.70;;;;;19.30;97337.00;;;;2067733;28;20214;-52
2023/01/17 02:33:20;;;;;;;1.10;0.75;;;;;19.20;97345.00;;;;2068974;28;20639;-51
2023/01/17 02:34:24;;;;;;;1.73;0.70;;;;;19.20;97356.00;;;;2066537;28;20241;-51
2023/01/17 02:35:42;;;;;;;1.30;1.00;;;;;19.20;97355.00;;;;2075948;28;20237;-51
2023/01/17 02:36:50;;;;;;;2.30;0.65;;;;;19.20;97362.00;;;;2076739;28;20296;-51
2023/01/17 02:38:33;;;;;;;1.20;0.70;;;;;19.20;97348.00;;;;2070700;28;20217;-50
2023/01/17 02:39:37;;;;;;;1.00;0.50;;;;;19.20;97368.00;;;;2054917;28;20225;-51
2023/01/17 02:40:48;;;;;;;1.50;0.60;;;;;19.20;97374.00;;;;2041872;28;20633;-54
2023/01/17 02:41:59;;;;;;;1.48;0.70;;;;;19.30;97369.00;;;;2040218;28;20281;-52
2023/01/17 02:43:01;;;;;;;2.22;0.63;;;;;19.20;97375.00;;;;2061572;28;20211;-52
2023/01/17 02:44:02;;;;;;;2.90;0.90;;;;;19.20;97372.00;;;;2060590;28;20302;-51
2023/01/17 02:45:03;;;;;;;1.30;0.60;;;;;19.20;97374.00;;;;2068373;28;20218;-51
2023/01/17 02:46:03;;;;;;;1.63;0.70;;;;;19.20;97383.00;;;;2069040;28;20215;-52
2023/01/17 02:47:22;;;;;;;2.30;0.60;;;;;19.20;97386.00;;;;2069308;28;20468;-52
2023/01/17 02:48:23;;;;;;;0.95;0.60;;;;;19.20;97385.00;;;;2073609;28;20214;-51
2023/01/17 02:49:25;;;;;;;1.77;0.60;;;;;19.20;97381.00;;;;2068783;28;20215;-51
2023/01/17 02:50:38;;;;;;;0.93;0.50;;;;;19.20;97396.00;;;;2069462;28;20221;-51
2023/01/17 02:52:00;;;;;;;1.02;0.60;;;;;19.20;97394.00;;;;2056931;28;20220;-52
2023/01/17 02:53:03;;;;;;;1.85;0.70;;;;;19.20;97393.00;;;;2068517;28;20674;-51
2023/01/17 02:54:16;;;;;;;1.98;0.60;;;;;19.10;97403.00;;;;2078697;28;20236;-51
2023/01/17 02:55:33;;;;;;;1.02;0.47;;;;;19.10;97411.00;;;;2078778;28;20244;-53
2023/01/17 02:57:03;;;;;;;1.02;0.40;;;;;19.10;97398.00;;;;2078392;28;20263;-53
2023/01/17 02:58:26;;;;;;;1.00;0.50;;;;;19.10;97413.00;;;;2066657;28;20674;-50
2023/01/17 02:59:36;;;;;;;0.70;0.40;;;;;19.10;97407.00;;;;2066302;28;20699;-53
2023/01/17 03:00:59;;;;;;;0.80;0.40;;;;;19.10;97412.00;;;;2075758;28;20226;-53
2023/01/17 03:02:34;;;;;;;0.88;0.40;;;;;19.10;97414.00;;;;2077059;28;20213;-53
2023/01/17 03:03:44;;;;;;;1.50;0.40;;;;;19.10;97410.00;;;;2078462;28;20264;-53
2023/01/17 03:04:49;;;;;;;1.00;0.40;;;;;19.10;97413.00;;;;2069191;28;20545;-52
2023/01/17 03:06:03;;;;;;;1.20;0.40;;;;;19.10;97423.00;;;;2071881;28;20309;-50
2023/01/17 03:07:06;;;;;;;0.95;0.40;;;;;19.10;97422.00;;;;2072325;28;20225;-51
2023/01/17 03:08:06;;;;;;;0.63;0.40;;;;;19.10;97416.00;;;;2070913;28;20742;-51
2023/01/17 03:09:06;;;;;;;1.33;0.53;;;;;19.10;97414.00;;;;2070218;28;20214;-51
2023/01/17 03:10:07;;;;;;;0.60;0.40;;;;;19.10;97421.00;;;;2070833;28;20218;-50
2023/01/17 03:11:08;;;;;;;0.70;0.33;;;;;19.10;97428.00;;;;2062386;28;20248;-51
2023/01/17 03:12:09;;;;;;;0.93;0.35;;;;;19.10;97423.00;;;;2068943;28;20685;-50
2023/01/17 03:13:09;;;;;;;1.00;0.50;;;;;19.10;97427.00;;;;2070388;28;20302;-51
2023/01/17 03:14:09;;;;;;;0.73;0.40;;;;;19.10;97426.00;;;;2066989;28;20765;-51
2023/01/17 03:15:10;;;;;;;1.23;0.40;;;;;19.10;97429.00;;;;2071028;28;20214;-51
2023/01/17 03:16:17;;;;;;;1.40;0.45;;;;;19.10;97427.00;;;;2071230;28;20218;-51
2023/01/17 03:17:17;;;;;;;0.85;0.32;;;;;19.10;97420.00;;;;2069970;28;20210;-51
2023/01/17 03:18:18;;;;;;;0.70;0.30;;;;;19.10;97432.00;;;;2062389;28;20293;-51
2023/01/17 03:19:18;;;;;;;1.47;0.30;;;;;19.10;97433.00;;;;2070322;28;20706;-52
2023/01/17 03:20:18;;;;;;;0.90;0.40;;;;;19.10;97432.00;;;;2070204;28;20210;-51
2023/01/17 03:21:20;;;;;;;0.60;0.40;;;;;19.10;97437.00;;;;2071191;28;20221;-53
2023/01/17 03:22:20;;;;;;;1.20;0.30;;;;;19.10;97442.00;;;;2069727;28;20697;-51
2023/01/17 03:23:21;;;;;;;0.70;0.40;;;;;19.10;97438.00;;;;2071108;28;20289;-52
2023/01/17 03:24:21;;;;;;;0.70;0.30;;;;;19.00;97444.00;;;;2071360;28;20206;-51
2023/01/17 03:25:21;;;;;;;1.00;0.30;;;;;19.00;97436.00;;;;2070769;28;20680;-51
2023/01/17 03:26:22;;;;;;;1.70;0.40;;;;;19.00;97443.00;;;;2070851;28;20237;-51
2023/01/17 03:27:22;;;;;;;0.90;0.43;;;;;19.00;97438.00;;;;2071380;28;20277;-51
2023/01/17 03:28:22;;;;;;;0.70;0.40;;;;;19.00;97439.00;;;;2071369;28;20206;-51
2023/01/17 03:29:22;;;;;;;0.80;0.40;;;;;19.00;97431.00;;;;2071387;28;20586;-51
2023/01/17 03:30:23;;;;;;;0.70;0.40;;;;;19.00;97439.00;;;;2070935;28;20218;-51
2023/01/17 03:31:23;;;;;;;0.90;0.40;;;;;19.00;97444.00;;;;2071036;28;20206;-51
2023/01/17 03:32:24;;;;;;;0.60;0.40;;;;;19.10;97450.00;;;;2069898;28;20622;-51
2023/01/17 03:33:24;;;;;;;0.60;0.30;;;;;19.00;97457.00;;;;2071426;28;20714;-51
2023/01/17 03:34:24;;;;;;;0.70;0.40;;;;;19.00;97445.00;;;;2070029;28;20591;-52
2023/01/17 03:35:25;;;;;;;0.87;0.40;;;;;19.00;97451.00;;;;2070496;28;20293;-52
2023/01/17 03:36:25;;;;;;;0.60;0.30;;;;;19.00;97453.00;;;;2070476;28;20246;-52
2023/01/17 03:37:25;;;;;;;1.00;0.63;;;;;19.00;97445.00;;;;2070832;28;20207;-52
2023/01/17 03:38:26;;;;;;;1.03;0.40;;;;;19.00;97452.00;;;;2070358;28;20210;-52
2023/01/17 03:39:27;;;;;;;0.60;0.30;;;;;19.00;97444.00;;;;2070528;28;20206;-53
2023/01/17 03:40:27;;;;;;;1.00;0.40;;;;;19.00;97448.00;;;;2070978;28;20545;-51
2023/01/17 03:41:27;;;;;;;0.93;0.50;;;;;19.00;97453.00;;;;2070867;28;20714;-51
2023/01/17 03:42:27;;;;;;;1.93;0.50;;;;;19.00;97447.00;;;;2069893;28;20218;-51
2023/01/17 03:43:28;;;;;;;1.00;0.50;;;;;18.90;97452.00;;;;2071283;28;20268;-52
2023/01/17 03:44:28;;;;;;;1.00;0.50;;;;;18.90;97455.00;;;;2071178;28;20245;-52
2023/01/17 03:45:29;;;;;;;1.00;0.57;;;;;19.00;97457.00;;;;2071273;28;20206;-53
2023/01/17 03:46:29;;;;;;;0.83;0.57;;;;;19.00;97465.00;;;;2070475;28;20253;-51
2023/01/17 03:47:30;;;;;;;1.37;0.43;;;;;18.90;97455.00;;;;2070690;28;20214;-51
2023/01/17 03:48:30;;;;;;;0.60;0.40;;;;;18.80;97460.00;;;;2071133;28;20205;-51
2023/01/17 03:49:30;;;;;;;1.03;0.50;;;;;19.00;97460.00;;;;2071408;28;20698;-51
2023/01/17 03:50:31;;;;;;;1.20;0.50;;;;;19.00;97457.00;;;;2071048;28;20214;-50
2023/01/17 03:51:31;;;;;;;1.77;0.50;;;;;19.00;97464.00;;;;2071181;28;20221;-51
2023/01/17 03:52:31;;;;;;;0.70;0.50;;;;;19.00;97455.00;;;;2069628;28;20304;-50
2023/01/17 03:53:32;;;;;;;0.70;0.50;;;;;19.00;97465.00;;;;2072756;28;20268;-53
2023/01/17 03:54:32;;;;;;;0.87;0.50;;;;;19.00;97455.00;;;;2078830;28;20201;-50
2023/01/17 03:55:32;;;;;;;1.10;0.50;;;;;19.00;97465.00;;;;2079318;28;20205;-50
2023/01/17 03:56:33;;;;;;;1.47;0.73;;;;;19.00;97452.00;;;;2079079;28;20213;-50
2023/01/17 03:57:33;;;;;;;0.80;0.50;;;;;19.00;97463.00;;;;2078904;28;20311;-52
2023/01/17 03:58:33;;;;;;;0.80;0.50;;;;;18.90;97471.00;;;;2073069;28;20214;-52
2023/01/17 03:59:34;;;;;;;0.70;0.47;;;;;18.90;97470.00;;;;2071339;28;20214;-52
2023/01/17 04:00:35;;;;;;;2.33;0.93;;;;;19.00;97464.00;;;;2071025;28;20234;-48
2023/01/17 04:01:36;;;;;;;1.23;0.60;;;;;19.00;97465.00;;;;2070003;28;20648;-50
2023/01/17 04:02:36;;;;;;;1.23;0.70;;;;;19.00;97473.00;;;;2071259;28;20244;-53
2023/01/17 04:03:36;;;;;;;0.90;0.50;;;;;19.00;97477.00;;;;2075198;28;20316;-52
2023/01/17 04:04:36;;;;;;;0.90;0.60;;;;;19.00;97475.00;;;;2079163;28;20216;-51
2023/01/17 04:05:37;;;;;;;1.20;0.70;;;;;18.90;97478.00;;;;2078246;28;20217;-49
2023/01/17 04:06:37;;;;;;;1.07;0.57;;;;;18.90;97481.00;;;;2072941;28;20313;-54
2023/01/17 04:07:37;;;;;;;0.80;0.50;;;;;18.90;97483.00;;;;2079523;28;20243;-50
2023/01/17 04:08:38;;;;;;;1.10;0.60;;;;;18.90;97484.00;;;;2079034;28;20214;-53
2023/01/17 04:09:38;;;;;;;0.97;0.50;;;;;18.90;97488.00;;;;2078933;28;20248;-50
2023/01/17 04:10:39;;;;;;;1.03;0.50;;;;;18.90;97482.00;;;;2079419;28;20220;-50
2023/01/17 04:11:39;;;;;;;1.30;0.83;;;;;18.90;97487.00;;;;2079066;28;20214;-52
2023/01/17 04:12:40;;;;;;;1.20;0.50;;;;;18.90;97482.00;;;;2077782;28;20737;-50
2023/01/17 04:13:40;;;;;;;1.38;0.60;;;;;18.90;97489.00;;;;2078186;28;20235;-50
2023/01/17 04:14:41;;;;;;;1.63;0.57;;;;;18.90;97488.00;;;;2071049;28;20210;-50
2023/01/17 04:15:44;;;;;;;1.40;0.80;;;;;18.90;97487.00;;;;2070137;28;20225;-51
2023/01/17 04:16:45;;;;;;;1.00;0.60;;;;;18.90;97489.00;;;;2057333;28;20238;-52
2023/01/17 04:17:45;;;;;;;1.20;0.60;;;;;18.90;97488.00;;;;2062557;28;20230;-51
2023/01/17 04:18:45;;;;;;;1.27;0.70;;;;;18.90;97483.00;;;;2072320;28;20643;-53
2023/01/17 04:19:46;;;;;;;0.80;0.50;;;;;18.90;97491.00;;;;2086574;28;20680;-51
2023/01/17 04:20:46;;;;;;;1.00;0.50;;;;;18.90;97494.00;;;;2071093;28;20228;-54
2023/01/17 04:21:46;;;;;;;1.33;0.60;;;;;18.90;97487.00;;;;2067095;28;20256;-54
2023/01/17 04:22:47;;;;;;;2.50;0.80;;;;;18.90;97496.00;;;;2075368;28;20221;-52
2023/01/17 04:23:47;;;;;;;0.80;0.50;;;;;18.90;97490.00;;;;2071527;28;20265;-51
2023/01/17 04:24:47;;;;;;;0.93;0.50;;;;;18.90;97489.00;;;;2070721;28;20221;-50
2023/01/17 04:25:47;;;;;;;1.57;0.50;;;;;18.80;97477.00;;;;2070778;28;20217;-51
2023/01/17 04:26:48;;;;;;;2.10;0.80;;;;;18.80;97472.00;;;;2071014;28;20230;-50
2023/01/17 04:27:48;;;;;;;2.50;0.77;;;;;18.80;97486.00;;;;2070918;28;20221;-53
2023/01/17 04:28:48;;;;;;;2.30;0.63;;;;;18.80;97481.00;;;;2070939;28;20217;-52
2023/01/17 04:29:49;;;;;;;0.80;0.50;;;;;18.80;97473.00;;;;2077743;28;20233;-51
2023/01/17 04:30:49;;;;;;;1.40;0.60;;;;;18.90;97477.00;;;;2070206;28;20244;-51
2023/01/17 04:31:49;;;;;;;1.20;0.60;;;;;18.90;97477.00;;;;2066001;28;20214;-51
2023/01/17 04:32:50;;;;;;;2.60;0.63;;;;;18.80;97479.00;;;;2070326;28;20214;-51
2023/01/17 04:33:50;;;;;;;1.10;0.60;;;;;18.80;97470.00;;;;2070119;28;20218;-49
2023/01/17 04:34:50;;;;;;;0.70;0.43;;;;;18.80;97485.00;;;;2070357;28;20225;-49
2023/01/17 04:35:52;;;;;;;1.00;0.60;;;;;18.80;97486.00;;;;2070095;28;20221;-54
2023/01/17 04:36:52;;;;;;;1.77;0.50;;;;;18.80;97487.00;;;;2070990;28;20291;-51
2023/01/17 04:37:52;;;;;;;1.33;0.70;;;;;18.80;97493.00;;;;2070931;28;20277;-50
2023/01/17 04:38:53;;;;;;;1.90;0.53;;;;;18.80;97498.00;;;;2070262;28;20228;-50
2023/01/17 04:39:53;;;;;;;1.07;0.50;;;;;18.80;97490.00;;;;2070202;28;20269;-53
2023/01/17 04:40:53;;;;;;;1.40;0.70;;;;;18.80;97500.00;;;;2076276;28;20222;-52
2023/01/17 04:41:54;;;;;;;1.23;0.57;;;;;18.80;97493.00;;;;2077663;28;20214;-51
2023/01/17 04:42:56;;;;;;;1.00;0.70;;;;;18.80;97501.00;;;;2078775;28;20224;-50
2023/01/17 04:43:56;;;;;;;1.45;0.80;;;;;18.80;97501.00;;;;2077199;28;20883;-53
2023/01/17 04:44:57;;;;;;;1.30;0.70;;;;;18.80;97493.00;;;;2070994;28;20309;-53
2023/01/17 04:45:57;;;;;;;1.00;0.60;;;;;18.80;97495.00;;;;2070483;28;20261;-52
2023/01/17 04:47:00;;;;;;;1.87;1.37;;;;;18.80;97498.00;;;;2071067;28;20222;-53
2023/01/17 04:48:02;;;;;;;0.88;0.77;;;;;18.80;97490.00;;;;2070967;28;20227;-49
2023/01/17 04:49:02;;;;;;;1.27;0.70;;;;;18.80;97497.00;;;;2070185;28;20298;-53
2023/01/17 04:50:03;;;;;;;1.30;0.70;;;;;18.80;97501.00;;;;2077108;28;20748;-50
2023/01/17 04:51:03;;;;;;;2.80;0.77;;;;;18.80;97499.00;;;;2070631;28;20690;-51
2023/01/17 04:52:04;;;;;;;1.03;0.80;;;;;18.80;97505.00;;;;2069304;28;20864;-52
2023/01/17 04:53:04;;;;;;;1.97;0.90;;;;;18.80;97514.00;;;;2069587;28;20309;-51
2023/01/17 04:54:04;;;;;;;1.57;1.00;;;;;18.80;97522.00;;;;2069671;28;20221;-50
2023/01/17 04:55:05;;;;;;;2.73;1.20;;;;;18.80;97516.00;;;;2070273;28;20222;-54
2023/01/17 04:56:06;;;;;;;1.50;1.00;;;;;18.80;97526.00;;;;2077332;28;20744;-54
2023/01/17 04:57:06;;;;;;;1.60;1.00;;;;;18.80;97519.00;;;;2077332;28;20825;-53
2023/01/17 04:58:07;;;;;;;2.03;1.30;;;;;18.80;97516.00;;;;2073041;28;20232;-52
2023/01/17 04:59:07;;;;;;;1.70;1.03;;;;;18.80;97511.00;;;;2081870;28;20232;-51
2023/01/17 05:00:08;;;;;;;1.70;0.90;;;;;18.70;97514.00;;;;2081116;28;20233;-51
2023/01/17 05:01:08;;;;;;;2.17;1.30;;;;;18.80;97518.00;;;;2078430;28;20233;-54
2023/01/17 05:02:09;;;;;;;2.00;1.70;;;;;18.80;97518.00;;;;2074071;28;20215;-53
2023/01/17 05:03:09;;;;;;;1.27;1.17;;;;;18.80;97522.00;;;;2069932;28;20682;-51
2023/01/17 05:04:09;;;;;;;2.47;1.70;;;;;18.80;97522.00;;;;2074328;28;20217;-52
2023/01/17 05:05:10;;;;;;;1.73;1.40;;;;;18.80;97522.00;;;;2078193;28;20241;-49
2023/01/17 05:06:10;;;;;;;2.33;1.30;;;;;18.80;97521.00;;;;2077443;28;20221;-51
2023/01/17 05:07:10;;;;;;;1.40;1.30;;;;;18.80;97519.00;;;;2078336;28;20224;-50
2023/01/17 05:08:11;;;;;;;2.73;1.90;;;;;18.70;97515.00;;;;2078560;28;20214;-54
2023/01/17 05:09:11;;;;;;;2.50;1.50;;;;;18.70;97530.00;;;;2078279;28;20224;-51
2023/01/17 05:10:11;;;;;;;1.90;1.57;;;;;18.80;97528.00;;;;2078474;28;20721;-50
2023/01/17 05:11:12;;;;;;;2.20;1.33;;;;;18.70;97526.00;;;;2078351;28;20213;-51
2023/01/17 05:12:12;;;;;;;2.80;1.73;;;;;18.70;97523.00;;;;2068905;28;20699;-50
2023/01/17 05:13:12;;;;;;;2.20;1.50;;;;;18.70;97528.00;;;;2069742;28;20667;-50
2023/01/17 05:14:13;;;;;;;2.80;1.50;;;;;18.70;97524.00;;;;2071504;28;20209;-54
2023/01/17 05:15:13;;;;;;;1.87;1.30;;;;;18.80;97526.00;;;;2069692;28;20312;-52
2023/01/17 05:16:16;;;;;;;2.10;1.53;;;;;18.70;97526.00;;;;2070186;28;20222;-52
2023/01/17 05:17:17;;;;;;;1.40;1.30;;;;;18.70;97532.00;;;;2070031;28;20265;-54
2023/01/17 05:18:17;;;;;;;1.87;1.10;;;;;18.70;97525.00;;;;2070081;28;20238;-54
2023/01/17 05:19:18;;;;;;;2.50;1.43;;;;;18.70;97530.00;;;;2070381;28;20271;-51
2023/01/17 05:20:19;;;;;;;2.10;1.30;;;;;18.70;97535.00;;;;2070196;28;20221;-53
2023/01/17 05:21:20;;;;;;;2.10;1.48;;;;;18.70;97537.00;;;;2068241;28;20228;-54
2023/01/17 05:22:20;;;;;;;2.53;1.20;;;;;18.70;97536.00;;;;2070487;28;20217;-52
2023/01/17 05:23:20;;;;;;;3.37;1.60;;;;;18.80;97536.00;;;;2078110;28;20210;-51
2023/01/17 05:24:21;;;;;;;2.47;1.83;;;;;18.70;97543.00;;;;2074574;28;20366;-51
2023/01/17 05:25:26;;;;;;;2.13;1.60;;;;;18.70;97546.00;;;;2075678;28;20210;-52
2023/01/17 05:26:26;;;;;;;1.23;1.13;;;;;18.70;97544.00;;;;2077631;28;20693;-51
2023/01/17 05:27:28;;;;;;;1.33;1.13;;;;;18.80;97539.00;;;;2077787;28;20306;-52
2023/01/17 05:28:28;;;;;;;1.60;1.10;;;;;18.70;97549.00;;;;2078471;28;20209;-52
2023/01/17 05:29:29;;;;;;;1.60;1.40;;;;;18.70;97548.00;;;;2078672;28;20220;-52
2023/01/17 05:30:30;;;;;;;2.03;1.33;;;;;18.70;97544.00;;;;2077568;28;20216;-51
2023/01/17 05:31:30;;;;;;;1.53;1.30;;;;;18.70;97545.00;;;;2078678;28;20247;-51
2023/01/17 05:32:30;;;;;;;3.53;1.40;;;;;18.70;97544.00;;;;2076466;28;20484;-51
2023/01/17 05:33:31;;;;;;;1.30;1.10;;;;;18.70;97551.00;;;;2070164;28;20220;-51
2023/01/17 05:34:31;;;;;;;2.17;1.30;;;;;18.70;97548.00;;;;2070410;28;20218;-51
2023/01/17 05:35:31;;;;;;;1.60;1.03;;;;;18.70;97547.00;;;;2070561;28;20241;-50
2023/01/17 05:36:32;;;;;;;2.20;1.30;;;;;18.70;97539.00;;;;2070524;28;20222;-51
2023/01/17 05:37:32;;;;;;;1.50;1.10;;;;;18.70;97557.00;;;;2070510;28;20210;-53
2023/01/17 05:38:32;;;;;;;1.87;1.20;;;;;18.70;97554.00;;;;2070169;28;20210;-53
2023/01/17 05:39:33;;;;;;;1.70;1.07;;;;;18.70;97556.00;;;;2070145;28;20226;-52
2023/01/17 05:40:33;;;;;;;2.17;1.37;;;;;18.70;97550.00;;;;2071028;28;20229;-52
2023/01/17 05:41:33;;;;;;;2.10;1.13;;;;;18.70;97549.00;;;;2077300;28;20272;-51
2023/01/17 05:42:34;;;;;;;2.13;1.20;;;;;18.70;97549.00;;;;2069145;28;20244;-51
2023/01/17 05:43:34;;;;;;;1.43;1.10;;;;;18.70;97553.00;;;;2077303;28;20227;-53
2023/01/17 05:44:34;;;;;;;2.20;1.20;;;;;18.70;97545.00;;;;2078196;28;20220;-54
2023/01/17 05:45:35;;;;;;;1.57;1.27;;;;;18.70;97550.00;;;;2075768;28;20233;-51
2023/01/17 05:46:35;;;;;;;1.90;1.60;;;;;18.70;97558.00;;;;2076101;28;20220;-51
2023/01/17 05:47:35;;;;;;;2.30;1.20;;;;;18.70;97554.00;;;;2075216;28;20213;-53
2023/01/17 05:48:36;;;;;;;2.13;1.43;;;;;18.70;97553.00;;;;2061579;28;20321;-53
2023/01/17 05:49:37;;;;;;;2.10;1.10;;;;;18.70;97559.00;;;;2069118;28;20236;-54
2023/01/17 05:50:38;;;;;;;1.20;1.00;;;;;18.70;97551.00;;;;2069212;28;20218;-51
2023/01/17 05:51:38;;;;;;;1.50;1.20;;;;;18.70;97559.00;;;;2070579;28;20232;-52
2023/01/17 05:52:38;;;;;;;2.80;1.40;;;;;18.60;97564.00;;;;2068913;28;20221;-53
2023/01/17 05:53:39;;;;;;;1.00;0.90;;;;;18.60;97569.00;;;;2070546;28;20561;-51
2023/01/17 05:54:39;;;;;;;1.87;1.00;;;;;18.60;97561.00;;;;2070154;28;20222;-53
2023/01/17 05:55:39;;;;;;;2.37;1.23;;;;;18.60;97567.00;;;;2073137;28;20214;-53
2023/01/17 05:56:40;;;;;;;1.80;1.20;;;;;18.70;97557.00;;;;2078538;28;20220;-51
2023/01/17 05:57:40;;;;;;;1.97;1.20;;;;;18.60;97564.00;;;;2078638;28;20216;-51
2023/01/17 05:58:40;;;;;;;1.73;1.13;;;;;18.60;97569.00;;;;2078615;28;20820;-51
2023/01/17 05:59:41;;;;;;;1.50;1.00;;;;;18.60;97570.00;;;;2078554;28;20654;-53
2023/01/17 06:00:41;;;;;;;1.20;1.10;;;;;18.60;97572.00;;;;2078147;28;20230;-51
2023/01/17 06:01:42;;;;;;;1.50;1.30;;;;;18.60;97568.00;;;;2070437;28;20218;-53
2023/01/17 06:02:42;;;;;;;1.13;0.90;;;;;18.70;97578.00;;;;2069210;28;20264;-51
2023/01/17 06:03:43;;;;;;;1.33;1.00;;;;;18.70;97583.00;;;;2075724;28;20216;-50
2023/01/17 06:04:43;;;;;;;1.73;1.03;;;;;18.70;97580.00;;;;2078492;28;20459;-52
2023/01/17 06:05:43;;;;;;;2.37;1.60;;;;;18.70;97580.00;;;;2078074;28;20225;-51
2023/01/17 06:06:44;;;;;;;1.40;1.30;;;;;18.70;97574.00;;;;2070373;28;20240;-53
2023/01/17 06:07:44;;;;;;;3.10;1.60;;;;;18.70;97579.00;;;;2070664;28;20218;-50
2023/01/17 06:08:45;;;;;;;1.40;1.20;;;;;18.80;97575.00;;;;2070335;28;20214;-50
2023/01/17 06:09:45;;;;;;;3.00;1.17;;;;;18.80;97579.00;;;;2070397;28;20229;-50
2023/01/17 06:10:46;;;;;;;1.47;1.20;;;;;18.80;97580.00;;;;2074313;28;20229;-51
2023/01/17 06:11:46;;;;;;;1.93;1.03;;;;;18.90;97587.00;;;;2076584;28;20213;-53
2023/01/17 06:12:46;;;;;;;2.70;1.20;;;;;18.90;97594.00;;;;2069504;28;20488;-50
2023/01/17 06:13:47;;;;;;;1.87;1.20;;;;;18.90;97594.00;;;;2071648;28;20221;-52
2023/01/17 06:14:47;;;;;;;1.07;0.97;;;;;19.00;97595.00;;;;2074872;28;20732;-54
2023/01/17 06:15:48;;;;;;;1.47;1.20;;;;;19.00;97594.00;;;;2077619;28;20215;-52
2023/01/17 06:16:48;;;;;;;2.07;1.10;;;;;19.00;97595.00;;;;2078505;28;20221;-52
2023/01/17 06:17:48;;;;;;;2.07;1.30;;;;;19.00;97601.00;;;;2078412;28;20216;-53
2023/01/17 06:18:49;;;;;;;1.77;1.10;;;;;19.00;97592.00;;;;2078346;28;20209;-53
2023/01/17 06:19:49;;;;;;;2.67;1.33;;;;;19.10;97601.00;;;;2073486;28;20278;-52
2023/01/17 06:20:53;;;;;;;1.57;1.20;;;;;19.10;97601.00;;;;2070231;28;20218;-51
2023/01/17 06:21:53;;;;;;;1.40;1.30;;;;;19.10;97600.00;;;;2068793;28;20695;-51
2023/01/17 06:22:54;;;;;;;1.50;1.17;;;;;19.10;97596.00;;;;2071131;28;20222;-51
2023/01/17 06:23:54;;;;;;;2.00;1.30;;;;;19.10;97598.00;;;;2078073;28;20232;-51
2023/01/17 06:24:55;;;;;;;1.60;1.30;;;;;19.10;97596.00;;;;2079193;28;20206;-54
2023/01/17 06:25:55;;;;;;;3.83;1.67;;;;;19.10;97603.00;;;;2079770;28;20244;-52
2023/01/17 06:26:56;;;;;;;3.10;1.17;;;;;19.20;97597.00;;;;2074975;28;20301;-51
2023/01/17 06:27:56;;;;;;;1.60;1.03;;;;;19.20;97599.00;;;;2072640;28;20252;-52
2023/01/17 06:28:56;;;;;;;2.03;1.40;;;;;19.30;97592.00;;;;2080166;28;20448;-51
2023/01/17 06:29:57;;;;;;;1.97;1.30;;;;;19.40;97602.00;;;;2079556;28;20621;-55
2023/01/17 06:30:58;;;;;;;3.60;1.30;;;;;19.40;97599.00;;;;2075968;28;20214;-52
2023/01/17 06:31:59;;;;;;;2.50;0.90;;;;;19.50;97607.00;;;;2070570;28;20226;-54
2023/01/17 06:32:59;;;;;;;1.93;0.90;;;;;19.50;97605.00;;;;2071885;28;20224;-53
2023/01/17 06:34:03;;;;;;;1.10;0.97;;;;;19.50;97611.00;;;;2071509;28;20218;-54